Portada
METAR-TAF:

METAR-TAF

Aeroports :

San Borja, Bolívia

latitud: 14-52S, longitud: 066-52W, altitud: 194 m

Observació

L'informe es va fer fa 14 hores i 13 minuts, a les 22:00 UTC
Vent 4 kt del Nord/Nord-Oest
Temperatura 33°C
Humitat 53%
Pressió 1005 hPa
Visibilitat: 8000 m

METAR: SLSB 232200Z 33004KT 8000 NSC 33/22 Q1005

Hora: 08:13 (12:13 UTC)


TAF: manca

Observacions i pronòstics meteorològics de més de 4000 aeroports (METAR i TAF).

Les estacions disponibles són els punts grocs i vermells al mapa.

Posi el ratolí al punt desitjat per veure el nom de l'estació.

Feu clic per veure les observacions i els pronòstics meteorològics.

Per canviar el mapa: feu clic els botons verds amb una creu de color negre per apropar; al botó verd amb un guió per allunyar la imatge; o en les fletxes verdes per a mapes adjacents.


METAR-TAF: